createdAt,value
2023-01-31T00:02:26.284Z,51.75
2023-01-31T00:04:54.237Z,51.77
2023-01-31T00:07:22.180Z,52.01
2023-01-31T00:09:50.050Z,51.84
2023-01-31T00:12:17.892Z,51.80
2023-01-31T00:14:47.178Z,52.07
2023-01-31T00:17:15.071Z,51.81
2023-01-31T00:19:42.929Z,51.86
2023-01-31T00:22:10.860Z,51.95
2023-01-31T00:24:39.097Z,51.90
2023-01-31T00:27:08.704Z,52.02
2023-01-31T00:29:37.119Z,51.77
2023-01-31T00:32:07.108Z,51.72
2023-01-31T00:34:35.068Z,51.92
2023-01-31T00:37:02.990Z,52.21
2023-01-31T00:39:30.862Z,51.92
2023-01-31T00:41:58.788Z,52.20
2023-01-31T00:44:26.675Z,52.17
2023-01-31T00:46:54.588Z,52.01
2023-01-31T00:49:23.935Z,52.05
2023-01-31T00:51:51.839Z,52.02
2023-01-31T00:54:19.945Z,52.02
2023-01-31T00:56:47.820Z,52.01
2023-01-31T00:59:15.720Z,52.09
2023-01-31T01:01:43.655Z,52.01
2023-01-31T01:04:11.741Z,51.98
2023-01-31T01:06:41.977Z,52.19
2023-01-31T01:09:09.881Z,52.15
2023-01-31T01:11:37.801Z,52.08
2023-01-31T01:14:05.762Z,52.13
2023-01-31T01:16:35.531Z,52.25
2023-01-31T01:19:04.128Z,52.42
2023-01-31T01:21:32.440Z,52.28
2023-01-31T01:24:02.649Z,52.51
2023-01-31T01:26:31.918Z,52.42
2023-01-31T01:29:00.343Z,52.77
2023-01-31T01:31:30.390Z,52.68
2023-01-31T01:33:59.491Z,52.64
2023-01-31T01:36:27.622Z,52.88
2023-01-31T01:38:55.579Z,52.82
2023-01-31T01:41:24.909Z,53.07
2023-01-31T01:43:53.989Z,53.21
2023-01-31T01:46:25.587Z,53.29
2023-01-31T01:48:55.499Z,53.42
2023-01-31T01:51:23.457Z,53.64
2023-01-31T01:53:53.701Z,53.86
2023-01-31T01:56:24.959Z,54.05
2023-01-31T01:58:55.952Z,54.04
2023-01-31T02:01:23.978Z,54.17
2023-01-31T02:03:51.876Z,54.27
2023-01-31T02:06:19.803Z,54.29
2023-01-31T02:08:47.667Z,54.20
2023-01-31T02:11:19.034Z,54.31
2023-01-31T02:13:48.728Z,54.34
2023-01-31T02:16:16.950Z,54.32
2023-01-31T02:18:45.108Z,54.45
2023-01-31T02:22:00.366Z,54.59
2023-01-31T02:24:51.259Z,54.63
2023-01-31T02:27:41.997Z,54.99
2023-01-31T02:30:42.628Z,55.09
2023-01-31T02:33:16.098Z,55.02
2023-01-31T02:35:57.411Z,55.05
2023-01-31T02:38:32.086Z,55.18
2023-01-31T02:41:02.805Z,55.33
2023-01-31T02:43:56.050Z,55.39
2023-01-31T02:46:22.981Z,55.69
2023-01-31T02:48:54.276Z,55.76
2023-01-31T02:51:23.111Z,55.92
2023-01-31T02:53:52.721Z,56.00
2023-01-31T02:56:23.750Z,56.10
2023-01-31T02:58:55.706Z,55.98
2023-01-31T03:01:28.026Z,56.29
2023-01-31T03:03:59.916Z,56.25
2023-01-31T03:07:01.762Z,56.32
2023-01-31T03:09:36.961Z,56.14
2023-01-31T03:12:22.422Z,56.10
2023-01-31T03:14:54.089Z,56.38
2023-01-31T03:17:33.076Z,56.30
2023-01-31T03:20:06.165Z,56.22
2023-01-31T03:22:35.455Z,56.34
2023-01-31T03:25:03.706Z,56.51
2023-01-31T03:27:31.584Z,56.51
2023-01-31T03:30:03.806Z,56.55
2023-01-31T03:32:34.362Z,56.70
2023-01-31T03:35:03.896Z,56.82
2023-01-31T03:37:34.163Z,56.71
2023-01-31T03:40:05.863Z,56.90
2023-01-31T03:42:36.263Z,57.03
2023-01-31T03:45:05.978Z,57.21
2023-01-31T03:47:36.393Z,57.53
2023-01-31T03:50:08.783Z,57.40
2023-01-31T03:52:38.496Z,57.63
2023-01-31T03:55:09.310Z,57.76
2023-01-31T03:57:40.290Z,57.90
2023-01-31T04:00:10.632Z,57.69
2023-01-31T04:02:38.690Z,57.76
2023-01-31T04:05:09.881Z,57.90
2023-01-31T04:07:37.979Z,57.93
2023-01-31T04:10:06.301Z,58.11
2023-01-31T04:12:37.243Z,58.00
2023-01-31T04:15:05.626Z,58.41
2023-01-31T04:17:34.092Z,58.40
2023-01-31T04:20:02.086Z,58.49
2023-01-31T04:22:31.393Z,58.39
2023-01-31T04:24:59.834Z,58.47
2023-01-31T04:27:27.693Z,58.61
2023-01-31T04:29:55.567Z,59.00
2023-01-31T04:32:23.463Z,59.21
2023-01-31T04:34:51.347Z,58.86
2023-01-31T04:37:19.236Z,58.75
2023-01-31T04:39:48.510Z,59.02
2023-01-31T04:42:16.409Z,59.17
2023-01-31T04:44:44.417Z,59.37
2023-01-31T04:47:12.283Z,59.29
2023-01-31T04:49:40.785Z,59.30
2023-01-31T04:52:09.518Z,59.48
2023-01-31T04:54:37.885Z,59.78
2023-01-31T04:57:07.735Z,59.60
2023-01-31T04:59:36.135Z,59.68
2023-01-31T05:02:04.065Z,59.69
2023-01-31T05:04:31.989Z,59.57
2023-01-31T05:06:59.914Z,59.99
2023-01-31T05:09:27.825Z,59.95
2023-01-31T05:11:55.705Z,60.30
2023-01-31T05:14:24.995Z,60.01
2023-01-31T05:16:52.883Z,60.17
2023-01-31T05:19:20.752Z,60.01
2023-01-31T05:21:59.200Z,60.15
2023-01-31T05:24:28.144Z,60.26
2023-01-31T05:26:58.698Z,60.17
2023-01-31T05:29:28.407Z,59.90
2023-01-31T05:31:57.514Z,59.96
2023-01-31T05:34:26.285Z,60.06
2023-01-31T05:36:54.159Z,59.86
2023-01-31T05:39:22.113Z,60.10
2023-01-31T05:41:50.174Z,59.99
2023-01-31T05:44:18.198Z,60.27
2023-01-31T05:46:48.938Z,60.18
2023-01-31T05:49:17.912Z,60.40
2023-01-31T05:51:45.803Z,60.56
2023-01-31T05:54:13.767Z,60.18
2023-01-31T05:56:41.695Z,60.38
2023-01-31T05:59:09.767Z,60.43
2023-01-31T06:01:37.733Z,60.57
2023-01-31T06:04:07.214Z,60.41
2023-01-31T06:06:35.125Z,60.33
2023-01-31T06:09:02.967Z,60.02
2023-01-31T06:11:30.932Z,60.07
2023-01-31T06:13:59.619Z,60.15
2023-01-31T06:16:27.681Z,60.32
2023-01-31T06:18:57.087Z,60.20
2023-01-31T06:21:26.422Z,60.16
2023-01-31T06:23:54.309Z,60.00
2023-01-31T06:26:22.249Z,60.10
2023-01-31T06:28:50.197Z,60.01
2023-01-31T06:31:19.342Z,60.15
2023-01-31T06:33:48.200Z,59.87
2023-01-31T06:36:18.835Z,60.06
2023-01-31T06:38:51.739Z,59.85
2023-01-31T06:41:19.787Z,59.83
2023-01-31T06:43:47.671Z,59.78
2023-01-31T06:46:15.640Z,60.03
2023-01-31T06:48:43.929Z,59.89
2023-01-31T06:51:11.957Z,59.92
2023-01-31T06:53:39.831Z,59.71
2023-01-31T06:56:09.526Z,59.80
2023-01-31T06:58:37.409Z,59.87
2023-01-31T07:01:06.664Z,60.04
2023-01-31T07:03:34.538Z,60.04
2023-01-31T07:06:02.518Z,60.00
2023-01-31T07:08:33.845Z,60.33
2023-01-31T07:11:02.892Z,60.10
2023-01-31T07:13:32.513Z,60.00
2023-01-31T07:16:00.578Z,60.25
2023-01-31T07:18:28.744Z,60.13
2023-01-31T07:20:56.626Z,60.05
2023-01-31T07:23:24.569Z,60.40
2023-01-31T07:25:52.441Z,60.80
2023-01-31T07:28:20.313Z,60.76
2023-01-31T07:30:51.600Z,60.81
2023-01-31T07:33:19.917Z,60.77
2023-01-31T07:35:47.815Z,61.17
2023-01-31T07:38:15.777Z,61.23
2023-01-31T07:40:43.671Z,61.29
2023-01-31T07:43:11.581Z,61.53
2023-01-31T07:45:42.793Z,61.75
2023-01-31T07:48:12.516Z,61.73
2023-01-31T07:50:40.431Z,61.83
2023-01-31T07:53:08.323Z,61.79
2023-01-31T07:55:36.229Z,61.90
2023-01-31T07:58:04.102Z,61.88
2023-01-31T08:00:49.988Z,61.81
2023-01-31T08:03:37.095Z,61.86
2023-01-31T08:06:07.940Z,62.14
2023-01-31T08:08:36.461Z,62.23
2023-01-31T08:11:05.585Z,62.16
2023-01-31T08:13:33.917Z,62.12
2023-01-31T08:16:01.943Z,62.24
2023-01-31T08:18:31.836Z,62.21
2023-01-31T08:21:00.479Z,62.13
2023-01-31T08:23:28.552Z,61.96
2023-01-31T08:26:01.159Z,62.20
2023-01-31T08:28:29.419Z,62.32
2023-01-31T08:31:08.280Z,62.27
2023-01-31T08:33:39.695Z,62.66
2023-01-31T08:36:14.432Z,62.71
2023-01-31T08:38:42.999Z,62.44
2023-01-31T08:41:11.526Z,62.80
2023-01-31T08:43:54.101Z,62.70
2023-01-31T08:46:23.690Z,62.72
2023-01-31T08:48:53.254Z,62.99
2023-01-31T08:51:21.424Z,62.79
2023-01-31T08:53:49.598Z,62.86
2023-01-31T08:56:17.544Z,62.96
2023-01-31T08:58:45.607Z,62.96
2023-01-31T09:01:14.965Z,62.94
2023-01-31T09:03:45.202Z,63.21
2023-01-31T09:06:17.037Z,63.30
2023-01-31T09:08:45.069Z,63.45
2023-01-31T09:11:17.255Z,63.57
2023-01-31T09:13:45.483Z,63.64
2023-01-31T09:16:14.081Z,63.66
2023-01-31T09:18:42.273Z,63.58
2023-01-31T09:21:11.504Z,63.62
2023-01-31T09:23:42.727Z,64.03
2023-01-31T09:26:10.896Z,63.91
2023-01-31T09:28:38.845Z,63.81
2023-01-31T09:31:07.755Z,63.92
2023-01-31T09:33:35.773Z,63.99
2023-01-31T09:36:04.960Z,64.16
2023-01-31T09:38:33.066Z,63.99
2023-01-31T09:41:04.314Z,63.86
2023-01-31T09:43:37.559Z,64.01
2023-01-31T09:46:06.763Z,64.05
2023-01-31T09:48:36.934Z,63.93
2023-01-31T09:51:05.152Z,64.00
2023-01-31T09:53:34.466Z,63.89
2023-01-31T09:56:13.349Z,63.96
2023-01-31T09:58:46.828Z,63.97
2023-01-31T10:01:18.397Z,64.14
2023-01-31T10:03:59.311Z,64.49
2023-01-31T10:06:29.282Z,64.33
2023-01-31T10:09:00.347Z,64.33
2023-01-31T10:11:38.256Z,64.08
2023-01-31T10:14:11.517Z,63.53
2023-01-31T10:16:39.874Z,63.36
2023-01-31T10:19:09.401Z,63.66
2023-01-31T10:21:39.973Z,63.79
2023-01-31T10:24:12.878Z,63.96
2023-01-31T10:26:42.588Z,63.75
2023-01-31T10:29:13.748Z,63.93
2023-01-31T10:31:44.260Z,64.08
2023-01-31T10:34:13.575Z,63.64
2023-01-31T10:36:44.113Z,63.64
2023-01-31T10:39:16.130Z,63.54
2023-01-31T10:41:50.978Z,63.61
2023-01-31T10:44:24.578Z,63.16
2023-01-31T10:46:53.747Z,63.26
2023-01-31T10:49:21.667Z,63.57
2023-01-31T10:52:10.698Z,62.97
2023-01-31T10:54:44.221Z,62.70
2023-01-31T10:57:13.571Z,62.10
2023-01-31T10:59:43.923Z,62.02
2023-01-31T11:02:19.387Z,61.32
2023-01-31T11:04:47.359Z,61.21
2023-01-31T11:07:15.332Z,61.25
2023-01-31T11:09:44.975Z,60.94
2023-01-31T11:12:14.264Z,60.40
2023-01-31T11:14:42.165Z,60.02
2023-01-31T11:17:15.279Z,59.90
2023-01-31T11:19:46.209Z,59.49
2023-01-31T11:22:21.687Z,59.08
2023-01-31T11:24:49.547Z,58.59
2023-01-31T11:27:27.622Z,58.75
2023-01-31T11:29:59.927Z,58.48
2023-01-31T11:32:29.590Z,57.98
2023-01-31T11:34:58.482Z,57.27
2023-01-31T11:37:26.408Z,57.54
2023-01-31T11:39:58.397Z,57.61
2023-01-31T11:42:27.907Z,57.25
2023-01-31T11:44:57.084Z,57.64
2023-01-31T11:47:32.702Z,57.50
2023-01-31T11:50:01.231Z,57.71
2023-01-31T11:52:33.231Z,57.38
2023-01-31T11:55:02.867Z,56.22
2023-01-31T11:57:33.679Z,55.00
2023-01-31T12:00:02.928Z,53.99
2023-01-31T12:02:34.549Z,53.89
2023-01-31T12:05:03.391Z,54.49
2023-01-31T12:07:33.703Z,55.67
2023-01-31T12:10:01.665Z,55.72
2023-01-31T12:12:33.892Z,56.18
2023-01-31T12:15:04.904Z,56.17
2023-01-31T12:17:33.552Z,55.83
2023-01-31T12:20:26.992Z,55.25
2023-01-31T12:23:00.865Z,54.54
2023-01-31T12:25:34.121Z,53.82
2023-01-31T12:28:08.169Z,53.85
2023-01-31T12:30:46.242Z,53.65
2023-01-31T12:33:21.574Z,53.64
2023-01-31T12:35:55.956Z,52.99
2023-01-31T12:38:40.378Z,52.73
2023-01-31T12:41:13.680Z,52.94
2023-01-31T12:43:50.323Z,52.92
2023-01-31T12:46:23.464Z,51.93
2023-01-31T12:49:00.016Z,50.92
2023-01-31T12:51:34.918Z,50.56
2023-01-31T12:54:09.774Z,50.82
2023-01-31T12:56:51.372Z,51.14
2023-01-31T12:59:28.085Z,51.32
2023-01-31T13:01:59.560Z,51.15
2023-01-31T13:04:34.900Z,50.93
2023-01-31T13:07:04.673Z,50.88
2023-01-31T13:09:33.341Z,50.41
2023-01-31T13:12:05.286Z,50.54
2023-01-31T13:14:34.305Z,49.51
2023-01-31T13:17:04.935Z,49.47
2023-01-31T13:19:34.587Z,49.66
2023-01-31T13:22:04.156Z,49.14
2023-01-31T13:24:34.096Z,48.71
2023-01-31T13:27:04.876Z,48.64
2023-01-31T13:29:34.765Z,49.13
2023-01-31T13:32:06.024Z,49.49
2023-01-31T13:34:37.241Z,48.95
2023-01-31T13:37:07.027Z,48.68
2023-01-31T13:39:38.009Z,48.48
2023-01-31T13:42:06.163Z,48.19
2023-01-31T13:44:34.104Z,48.10
2023-01-31T13:47:04.692Z,48.78
2023-01-31T13:49:34.164Z,48.40
2023-01-31T13:52:03.497Z,47.93
2023-01-31T13:54:33.472Z,47.46
2023-01-31T13:57:01.600Z,47.21
2023-01-31T13:59:30.951Z,47.04
2023-01-31T14:02:00.855Z,46.39
2023-01-31T14:04:37.816Z,46.27
2023-01-31T14:07:21.543Z,45.81
2023-01-31T14:10:37.080Z,45.52
2023-01-31T14:13:41.817Z,45.94
2023-01-31T14:16:42.107Z,45.71
2023-01-31T14:19:56.069Z,46.27
2023-01-31T14:22:26.052Z,46.17
2023-01-31T14:24:57.327Z,46.04
2023-01-31T14:27:26.038Z,46.25
2023-01-31T14:29:58.054Z,45.47
2023-01-31T14:32:29.761Z,45.72
2023-01-31T14:34:57.635Z,44.62
2023-01-31T14:37:34.036Z,45.08
2023-01-31T14:40:23.105Z,48.03
2023-01-31T14:43:13.186Z,48.08
2023-01-31T14:45:57.231Z,47.91
2023-01-31T14:48:34.971Z,47.16
2023-01-31T14:51:10.576Z,46.30
2023-01-31T14:54:06.172Z,45.93
2023-01-31T14:56:52.486Z,45.88
2023-01-31T14:59:29.467Z,45.51
2023-01-31T15:01:57.691Z,45.49
2023-01-31T15:04:26.502Z,46.16
2023-01-31T15:06:55.890Z,45.87
2023-01-31T15:09:37.941Z,45.95
2023-01-31T15:12:07.980Z,44.56
2023-01-31T15:14:37.938Z,43.73
2023-01-31T15:17:31.796Z,43.37
2023-01-31T15:20:05.739Z,43.89
2023-01-31T15:22:33.756Z,44.54
2023-01-31T15:25:09.626Z,45.25
2023-01-31T15:27:39.265Z,45.47
2023-01-31T15:30:09.454Z,45.52
2023-01-31T15:32:40.686Z,46.16
2023-01-31T15:35:14.343Z,45.98
2023-01-31T15:37:42.671Z,46.30
2023-01-31T15:40:19.551Z,46.75
2023-01-31T15:42:47.705Z,46.91
2023-01-31T15:45:20.336Z,47.04
2023-01-31T15:47:59.576Z,47.22
2023-01-31T15:50:27.802Z,47.34
2023-01-31T15:52:56.601Z,47.53
2023-01-31T15:55:25.924Z,47.39
2023-01-31T15:57:56.882Z,47.76
2023-01-31T16:00:26.293Z,47.79
2023-01-31T16:03:00.875Z,48.09
2023-01-31T16:05:31.581Z,48.04
2023-01-31T16:07:59.754Z,48.10
2023-01-31T16:10:29.587Z,48.41
2023-01-31T16:12:58.276Z,48.29
2023-01-31T16:15:26.862Z,47.85
2023-01-31T16:17:55.081Z,47.79
2023-01-31T16:20:37.655Z,47.26
2023-01-31T16:23:06.008Z,47.57
2023-01-31T16:25:36.331Z,47.56
2023-01-31T16:28:06.180Z,47.81
2023-01-31T16:30:34.772Z,48.11
2023-01-31T16:33:02.704Z,48.41
2023-01-31T16:35:30.915Z,48.88
2023-01-31T16:38:03.664Z,49.17
2023-01-31T16:40:32.628Z,49.40
2023-01-31T16:43:11.261Z,49.24
2023-01-31T16:45:39.196Z,49.29
2023-01-31T16:48:22.713Z,49.83
2023-01-31T16:50:50.697Z,50.05
2023-01-31T16:53:21.171Z,50.13
2023-01-31T16:55:57.098Z,50.42
2023-01-31T16:58:46.560Z,50.56
2023-01-31T17:01:14.996Z,50.48
2023-01-31T17:03:42.930Z,50.74
2023-01-31T17:06:10.828Z,50.82
2023-01-31T17:08:41.845Z,50.74
2023-01-31T17:11:13.823Z,50.89
2023-01-31T17:13:45.769Z,50.58
2023-01-31T17:16:24.396Z,50.73
2023-01-31T17:18:53.491Z,51.06
2023-01-31T17:21:22.819Z,50.81
2023-01-31T17:23:50.753Z,50.74
2023-01-31T17:26:19.018Z,51.17
2023-01-31T17:29:00.794Z,51.30
2023-01-31T17:31:29.847Z,51.36
2023-01-31T17:33:57.878Z,51.16
2023-01-31T17:36:25.778Z,51.39
2023-01-31T17:38:53.816Z,51.33
2023-01-31T17:41:24.548Z,51.61
2023-01-31T17:43:53.954Z,51.59
2023-01-31T17:46:21.943Z,51.34
2023-01-31T17:48:49.850Z,51.75
2023-01-31T17:51:17.793Z,51.82
2023-01-31T17:53:49.913Z,51.78
2023-01-31T17:56:18.658Z,51.87
2023-01-31T17:58:46.677Z,51.86
2023-01-31T18:01:16.044Z,51.93
2023-01-31T18:03:44.137Z,51.92
2023-01-31T18:06:12.117Z,51.80
2023-01-31T18:08:40.180Z,51.63
2023-01-31T18:11:08.401Z,51.66
2023-01-31T18:13:38.036Z,51.97
2023-01-31T18:16:08.068Z,51.96
2023-01-31T18:18:40.398Z,51.99
2023-01-31T18:21:10.214Z,52.07
2023-01-31T18:23:38.256Z,51.83
2023-01-31T18:26:06.629Z,51.88
2023-01-31T18:28:34.624Z,51.90
2023-01-31T18:31:03.830Z,52.04
2023-01-31T18:33:31.868Z,51.89
2023-01-31T18:36:01.664Z,52.09
2023-01-31T18:38:30.250Z,52.02
2023-01-31T18:41:00.123Z,51.82
2023-01-31T18:43:28.033Z,52.04
2023-01-31T18:45:55.969Z,52.02
2023-01-31T18:48:23.917Z,51.91
2023-01-31T18:50:51.841Z,51.99
2023-01-31T18:53:21.091Z,51.91
2023-01-31T18:55:48.942Z,51.98
2023-01-31T18:58:16.822Z,51.87
2023-01-31T19:00:44.769Z,52.03
2023-01-31T19:03:12.667Z,52.06
2023-01-31T19:05:40.609Z,51.94
2023-01-31T19:08:08.569Z,52.00
2023-01-31T19:10:37.785Z,51.95
2023-01-31T19:13:05.826Z,51.79
2023-01-31T19:15:33.846Z,51.97
2023-01-31T19:18:01.718Z,51.70
2023-01-31T19:20:29.650Z,51.70
2023-01-31T19:22:59.341Z,51.67
2023-01-31T19:25:27.183Z,51.73
2023-01-31T19:28:00.123Z,51.69
2023-01-31T19:30:28.386Z,51.76
2023-01-31T19:32:56.343Z,51.77
2023-01-31T19:35:24.213Z,51.82
2023-01-31T19:37:52.063Z,51.59
2023-01-31T19:40:19.992Z,51.64
2023-01-31T19:42:47.910Z,51.67
2023-01-31T19:45:21.924Z,51.46
2023-01-31T19:47:50.782Z,51.56
2023-01-31T19:50:20.209Z,51.41
2023-01-31T19:52:48.078Z,51.46
2023-01-31T19:55:15.965Z,51.38
2023-01-31T19:57:43.871Z,51.33
2023-01-31T20:00:13.496Z,51.41
2023-01-31T20:02:43.145Z,51.24
2023-01-31T20:05:13.019Z,51.24
2023-01-31T20:07:42.503Z,51.39
2023-01-31T20:10:11.602Z,51.24
2023-01-31T20:12:39.609Z,51.19
2023-01-31T20:15:08.535Z,51.08
2023-01-31T20:17:36.474Z,51.17
2023-01-31T20:20:06.244Z,51.14
2023-01-31T20:22:35.449Z,51.05
2023-01-31T20:25:03.451Z,51.38
2023-01-31T20:27:33.740Z,51.35
2023-01-31T20:30:01.638Z,51.34
2023-01-31T20:32:29.567Z,51.66
2023-01-31T20:34:57.718Z,51.65
2023-01-31T20:37:27.402Z,51.56
2023-01-31T20:39:55.260Z,51.64
2023-01-31T20:42:25.662Z,51.58
2023-01-31T20:44:53.734Z,51.72
2023-01-31T20:47:21.621Z,51.82
2023-01-31T20:49:49.480Z,51.85
2023-01-31T20:52:17.372Z,52.08
2023-01-31T20:54:46.618Z,51.94
2023-01-31T20:57:14.546Z,52.12
2023-01-31T20:59:42.423Z,52.17
2023-01-31T21:02:10.579Z,52.04
2023-01-31T21:04:38.750Z,52.31
2023-01-31T21:07:06.660Z,51.83
2023-01-31T21:09:34.514Z,51.49
2023-01-31T21:12:03.795Z,51.14
2023-01-31T21:14:31.810Z,50.86
2023-01-31T21:16:59.784Z,50.65
2023-01-31T21:19:27.715Z,50.83
2023-01-31T21:21:55.691Z,50.68
2023-01-31T21:24:23.544Z,50.79
2023-01-31T21:26:51.493Z,50.97
2023-01-31T21:29:20.940Z,50.74
2023-01-31T21:31:48.936Z,50.70
2023-01-31T21:34:17.050Z,50.64
2023-01-31T21:36:45.903Z,50.61
2023-01-31T21:39:13.961Z,50.31
2023-01-31T21:41:59.553Z,50.24
2023-01-31T21:44:28.839Z,50.12
2023-01-31T21:46:56.740Z,50.08
2023-01-31T21:49:26.414Z,50.03
2023-01-31T21:51:54.312Z,50.03
2023-01-31T21:54:22.275Z,49.90
2023-01-31T21:56:50.193Z,50.10
2023-01-31T21:59:18.077Z,50.03
2023-01-31T22:01:47.511Z,50.13
2023-01-31T22:04:20.517Z,50.27
2023-01-31T22:06:48.877Z,50.30
2023-01-31T22:09:16.814Z,50.37
2023-01-31T22:11:44.784Z,50.58
2023-01-31T22:14:15.553Z,50.58
2023-01-31T22:16:43.458Z,50.21
2023-01-31T22:19:13.372Z,49.87
2023-01-31T22:21:41.587Z,49.42
2023-01-31T22:24:11.607Z,49.45
2023-01-31T22:26:40.681Z,49.25
2023-01-31T22:29:09.456Z,49.16
2023-01-31T22:31:37.608Z,48.70
2023-01-31T22:34:06.117Z,48.94
2023-01-31T22:36:35.604Z,48.99
2023-01-31T22:39:03.511Z,48.80
2023-01-31T22:41:31.836Z,48.73
2023-01-31T22:43:59.748Z,48.63
2023-01-31T22:46:28.558Z,48.58
2023-01-31T22:48:56.580Z,48.70
2023-01-31T22:51:25.740Z,48.89
2023-01-31T22:53:55.378Z,49.01
2023-01-31T22:56:24.620Z,49.08
2023-01-31T22:58:56.252Z,49.22
2023-01-31T23:01:25.052Z,49.08
2023-01-31T23:03:56.826Z,49.21
2023-01-31T23:06:24.808Z,49.32
2023-01-31T23:08:54.165Z,49.42
2023-01-31T23:11:22.170Z,49.47
2023-01-31T23:13:50.227Z,49.73
2023-01-31T23:16:19.301Z,49.81
2023-01-31T23:18:47.226Z,49.89
2023-01-31T23:21:16.176Z,49.99
2023-01-31T23:23:44.181Z,50.11
2023-01-31T23:26:13.480Z,50.07
2023-01-31T23:28:41.527Z,49.57
2023-01-31T23:31:09.564Z,49.33
2023-01-31T23:33:37.535Z,49.39
2023-01-31T23:36:06.240Z,49.20
2023-01-31T23:38:34.202Z,49.24
2023-01-31T23:41:02.130Z,49.40
2023-01-31T23:43:31.390Z,49.29
2023-01-31T23:45:59.307Z,49.30
2023-01-31T23:48:27.250Z,49.27
2023-01-31T23:50:55.130Z,49.28
2023-01-31T23:53:23.118Z,49.48
2023-01-31T23:55:51.001Z,49.72
2023-01-31T23:58:18.923Z,49.67
